createdAt,value
2022-11-29T00:02:02.726Z,96696.56
2022-11-29T00:04:29.176Z,96693.44
2022-11-29T00:06:55.539Z,96692.22
2022-11-29T00:09:21.864Z,96686.84
2022-11-29T00:12:06.680Z,96690.97
2022-11-29T00:14:33.075Z,96698.09
2022-11-29T00:17:02.186Z,96690.16
2022-11-29T00:19:29.274Z,96694.28
2022-11-29T00:21:55.698Z,96694.09
2022-11-29T00:24:22.273Z,96690.81
2022-11-29T00:26:49.752Z,96691.38
2022-11-29T00:29:22.039Z,96682.06
2022-11-29T00:31:48.504Z,96696.03
2022-11-29T00:34:14.885Z,96698.09
2022-11-29T00:36:41.304Z,96687.16
2022-11-29T00:39:11.905Z,96688.63
2022-11-29T00:41:38.892Z,96682.50
2022-11-29T00:44:06.334Z,96688.09
2022-11-29T00:46:32.660Z,96684.53
2022-11-29T00:48:59.004Z,96679.91
2022-11-29T00:51:25.391Z,96683.97
2022-11-29T00:53:51.816Z,96688.91
2022-11-29T00:56:18.232Z,96682.06
2022-11-29T00:58:44.608Z,96676.59
2022-11-29T01:01:12.362Z,96682.38
2022-11-29T01:03:38.952Z,96681.78
2022-11-29T01:06:11.799Z,96683.28
2022-11-29T01:08:41.410Z,96681.53
2022-11-29T01:11:15.412Z,96688.06
2022-11-29T01:13:42.441Z,96681.25
2022-11-29T01:16:08.897Z,96686.03
2022-11-29T01:18:35.723Z,96680.94
2022-11-29T01:21:03.764Z,96680.91
2022-11-29T01:23:30.562Z,96681.69
2022-11-29T01:26:01.750Z,96682.84
2022-11-29T01:28:28.390Z,96678.31
2022-11-29T01:30:54.831Z,96681.88
2022-11-29T01:33:21.736Z,96683.25
2022-11-29T01:35:49.249Z,96687.50
2022-11-29T01:38:15.591Z,96688.03
2022-11-29T01:40:42.388Z,96681.19
2022-11-29T01:43:18.305Z,96681.19
2022-11-29T01:45:45.036Z,96681.75
2022-11-29T01:48:13.448Z,96682.00
2022-11-29T01:50:40.923Z,96681.31
2022-11-29T01:53:12.918Z,96677.81
2022-11-29T01:55:40.681Z,96682.84
2022-11-29T01:58:08.378Z,96681.84
2022-11-29T02:00:34.972Z,96675.34
2022-11-29T02:03:12.443Z,96673.53
2022-11-29T02:05:41.351Z,96674.56
2022-11-29T02:08:11.359Z,96673.19
2022-11-29T02:10:47.512Z,96675.72
2022-11-29T02:13:18.963Z,96673.09
2022-11-29T02:15:54.012Z,96672.69
2022-11-29T02:18:43.766Z,96668.56
2022-11-29T02:21:10.149Z,96675.22
2022-11-29T02:23:55.058Z,96671.56
2022-11-29T02:26:40.264Z,96674.75
2022-11-29T02:29:14.964Z,96673.78
2022-11-29T02:32:00.035Z,96678.38
2022-11-29T02:34:49.656Z,96674.31
2022-11-29T02:37:15.962Z,96679.88
2022-11-29T02:40:06.932Z,96677.16
2022-11-29T02:42:56.588Z,96679.75
2022-11-29T02:45:42.223Z,96678.66
2022-11-29T02:48:27.786Z,96674.69
2022-11-29T02:51:17.658Z,96671.53
2022-11-29T02:54:07.114Z,96673.03
2022-11-29T02:56:52.274Z,96677.97
2022-11-29T02:59:18.574Z,96677.97
2022-11-29T03:01:44.957Z,96678.38
2022-11-29T03:04:22.688Z,96684.94
2022-11-29T03:07:13.460Z,96684.66
2022-11-29T03:10:02.949Z,96691.41
2022-11-29T03:12:35.127Z,96684.31
2022-11-29T03:15:07.316Z,96690.75
2022-11-29T03:17:37.520Z,96689.13
2022-11-29T03:20:13.908Z,96689.50
2022-11-29T03:22:47.083Z,96694.78
2022-11-29T03:25:19.399Z,96695.63
2022-11-29T03:27:55.590Z,96695.16
2022-11-29T03:30:25.139Z,96698.94
2022-11-29T03:32:57.519Z,96704.94
2022-11-29T03:35:35.172Z,96709.03
2022-11-29T03:38:20.247Z,96708.34
2022-11-29T03:40:56.026Z,96707.03
2022-11-29T03:43:26.473Z,96705.91
2022-11-29T03:45:58.498Z,96714.09
2022-11-29T03:48:24.848Z,96715.75
2022-11-29T03:50:56.479Z,96713.66
2022-11-29T03:53:22.766Z,96717.59
2022-11-29T03:55:52.564Z,96716.53
2022-11-29T03:58:18.855Z,96711.09
2022-11-29T04:00:58.036Z,96717.75
2022-11-29T04:03:42.470Z,96713.50
2022-11-29T04:06:08.768Z,96716.13
2022-11-29T04:08:53.336Z,96712.56
2022-11-29T04:11:54.688Z,96709.59
2022-11-29T04:14:27.233Z,96708.41
2022-11-29T04:17:12.133Z,96706.88
2022-11-29T04:19:41.224Z,96710.94
2022-11-29T04:22:28.337Z,96709.41
2022-11-29T04:25:13.424Z,96712.84
2022-11-29T04:27:46.223Z,96706.34
2022-11-29T04:30:22.662Z,96711.94
2022-11-29T04:32:52.064Z,96707.00
2022-11-29T04:35:31.496Z,96719.56
2022-11-29T04:38:14.818Z,96715.63
2022-11-29T04:40:53.052Z,96716.41
2022-11-29T04:43:34.572Z,96715.03
2022-11-29T04:46:00.905Z,96718.47
2022-11-29T04:48:42.728Z,96719.56
2022-11-29T04:51:35.158Z,96723.41
2022-11-29T04:54:13.398Z,96726.00
2022-11-29T04:56:45.360Z,96725.03
2022-11-29T04:59:34.362Z,96734.22
2022-11-29T05:02:00.906Z,96730.13
2022-11-29T05:04:44.055Z,96733.69
2022-11-29T05:07:10.668Z,96732.22
2022-11-29T05:09:44.434Z,96733.75
2022-11-29T05:12:29.556Z,96740.28
2022-11-29T05:15:14.533Z,96743.41
2022-11-29T05:17:42.375Z,96740.34
2022-11-29T05:20:34.896Z,96739.41
2022-11-29T05:23:13.564Z,96744.94
2022-11-29T05:25:39.950Z,96742.63
2022-11-29T05:28:10.364Z,96745.72
2022-11-29T05:30:59.048Z,96751.75
2022-11-29T05:33:44.126Z,96753.13
2022-11-29T05:36:19.585Z,96754.38
2022-11-29T05:38:46.063Z,96747.09
2022-11-29T05:41:18.767Z,96751.34
2022-11-29T05:43:45.556Z,96746.16
2022-11-29T05:46:21.015Z,96744.94
2022-11-29T05:49:07.087Z,96755.84
2022-11-29T05:51:48.516Z,96756.53
2022-11-29T05:54:28.034Z,96757.25
2022-11-29T05:56:54.418Z,96754.91
2022-11-29T05:59:26.194Z,96759.41
2022-11-29T06:01:57.434Z,96759.00
2022-11-29T06:04:45.653Z,96764.88
2022-11-29T06:07:17.843Z,96761.22
2022-11-29T06:09:44.171Z,96766.31
2022-11-29T06:12:21.291Z,96762.16
2022-11-29T06:14:55.290Z,96761.31
2022-11-29T06:17:34.357Z,96766.25
2022-11-29T06:20:04.546Z,96768.00
2022-11-29T06:22:50.375Z,96766.50
2022-11-29T06:25:28.958Z,96771.19
2022-11-29T06:28:06.613Z,96769.53
2022-11-29T06:30:52.354Z,96774.41
2022-11-29T06:33:22.647Z,96768.84
2022-11-29T06:35:57.943Z,96770.31
2022-11-29T06:38:29.299Z,96768.00
2022-11-29T06:41:01.565Z,96777.16
2022-11-29T06:43:29.061Z,96774.72
2022-11-29T06:46:09.933Z,96780.19
2022-11-29T06:48:43.047Z,96780.19
2022-11-29T06:51:17.670Z,96780.19
2022-11-29T06:53:51.606Z,96788.13
2022-11-29T06:56:24.100Z,96785.59
2022-11-29T06:59:05.459Z,96785.47
2022-11-29T07:01:34.618Z,96794.69
2022-11-29T07:04:00.959Z,96799.56
2022-11-29T07:06:28.427Z,96794.28
2022-11-29T07:08:56.986Z,96801.47
2022-11-29T07:11:23.463Z,96807.09
2022-11-29T07:13:50.139Z,96805.91
2022-11-29T07:16:31.857Z,96811.09
2022-11-29T07:19:30.367Z,96813.00
2022-11-29T07:21:59.418Z,96805.41
2022-11-29T07:24:31.871Z,96810.47
2022-11-29T07:27:15.635Z,96813.31
2022-11-29T07:29:41.948Z,96811.41
2022-11-29T07:32:14.908Z,96810.91
2022-11-29T07:34:41.345Z,96825.22
2022-11-29T07:37:07.943Z,96817.00
2022-11-29T07:39:37.012Z,96813.88
2022-11-29T07:42:22.246Z,96816.09
2022-11-29T07:44:55.634Z,96821.84
2022-11-29T07:47:23.075Z,96817.91
2022-11-29T07:49:49.380Z,96830.16
2022-11-29T07:52:21.879Z,96826.06
2022-11-29T07:54:48.418Z,96827.03
2022-11-29T07:57:14.880Z,96833.00
2022-11-29T07:59:41.374Z,96831.41
2022-11-29T08:02:11.661Z,96823.47
2022-11-29T08:04:44.662Z,96834.06
2022-11-29T08:07:11.425Z,96833.94
2022-11-29T08:09:37.791Z,96835.69
2022-11-29T08:12:04.606Z,96836.00
2022-11-29T08:14:31.799Z,96838.03
2022-11-29T08:16:58.102Z,96844.63
2022-11-29T08:19:24.838Z,96844.63
2022-11-29T08:21:52.193Z,96843.00
2022-11-29T08:24:18.518Z,96840.81
2022-11-29T08:26:44.831Z,96844.88
2022-11-29T08:29:19.117Z,96845.59
2022-11-29T08:31:45.750Z,96847.72
2022-11-29T08:34:12.116Z,96850.50
2022-11-29T08:36:38.450Z,96854.75
2022-11-29T08:39:09.297Z,96851.88
2022-11-29T08:41:35.784Z,96859.13
2022-11-29T08:44:02.181Z,96855.88
2022-11-29T08:46:48.485Z,96861.84
2022-11-29T08:49:14.894Z,96859.69
2022-11-29T08:51:41.233Z,96857.09
2022-11-29T08:54:07.636Z,96860.00
2022-11-29T08:59:23.113Z,96868.22
2022-11-29T09:01:49.541Z,96864.34
2022-11-29T09:04:17.075Z,96864.34
2022-11-29T09:06:45.473Z,96874.56
2022-11-29T09:09:11.787Z,96879.34
2022-11-29T09:11:38.152Z,96876.91
2022-11-29T09:14:05.758Z,96877.81
2022-11-29T09:16:33.828Z,96881.94
2022-11-29T09:19:00.533Z,96878.38
2022-11-29T09:21:27.692Z,96883.31
2022-11-29T09:23:58.875Z,96878.66
2022-11-29T09:26:29.384Z,96885.75
2022-11-29T09:28:57.887Z,96885.25
2022-11-29T09:31:24.469Z,96894.81
2022-11-29T09:33:50.986Z,96891.00
2022-11-29T09:36:21.572Z,96892.09
2022-11-29T09:38:51.741Z,96885.97
2022-11-29T09:41:32.789Z,96894.56
2022-11-29T09:44:02.248Z,96889.72
2022-11-29T09:46:40.586Z,96891.59
2022-11-29T09:49:42.346Z,96895.66
2022-11-29T09:52:17.523Z,96890.50
2022-11-29T09:54:47.176Z,96896.97
2022-11-29T09:57:15.094Z,96899.28
2022-11-29T09:59:47.862Z,96893.28
2022-11-29T10:02:21.409Z,96900.38
2022-11-29T10:04:54.755Z,96899.41
2022-11-29T10:07:23.359Z,96891.09
2022-11-29T10:09:56.467Z,96901.28
2022-11-29T10:12:22.756Z,96898.75
2022-11-29T10:14:56.344Z,96893.84
2022-11-29T10:17:55.195Z,96889.97
2022-11-29T10:20:23.846Z,96895.59
2022-11-29T10:23:22.703Z,96892.31
2022-11-29T10:25:51.050Z,96891.50
2022-11-29T10:28:20.011Z,96889.72
2022-11-29T10:30:46.592Z,96895.09
2022-11-29T10:33:34.384Z,96883.78
2022-11-29T10:36:04.146Z,96888.44
2022-11-29T10:38:34.454Z,96893.56
2022-11-29T10:41:08.762Z,96887.13
2022-11-29T10:43:37.284Z,96891.66
2022-11-29T10:46:04.806Z,96886.19
2022-11-29T10:48:33.412Z,96888.06
2022-11-29T10:51:00.564Z,96878.50
2022-11-29T10:53:36.498Z,96878.50
2022-11-29T10:56:07.444Z,96883.72
2022-11-29T10:58:34.017Z,96885.78
2022-11-29T11:01:07.005Z,96890.84
2022-11-29T11:03:37.435Z,96891.94
2022-11-29T11:06:09.464Z,96891.53
2022-11-29T11:08:36.927Z,96894.97
2022-11-29T11:11:05.151Z,96892.22
2022-11-29T11:13:32.159Z,96893.31
2022-11-29T11:16:07.068Z,96891.84
2022-11-29T11:18:33.479Z,96896.47
2022-11-29T11:21:01.980Z,96895.53
2022-11-29T11:23:42.798Z,96894.72
2022-11-29T11:26:11.318Z,96893.59
2022-11-29T11:28:46.971Z,96901.13
2022-11-29T11:31:13.668Z,96896.50
2022-11-29T11:33:40.026Z,96895.25
2022-11-29T11:36:25.777Z,96898.69
2022-11-29T11:38:56.490Z,96900.44
2022-11-29T11:41:45.633Z,96902.94
2022-11-29T11:47:18.146Z,96906.91
2022-11-29T11:49:52.547Z,96899.63
2022-11-29T11:52:27.853Z,96898.81
2022-11-29T11:54:58.847Z,96895.25
2022-11-29T11:57:27.834Z,96905.13
2022-11-29T11:59:55.227Z,96901.00
2022-11-29T12:02:27.255Z,96903.88
2022-11-29T12:05:02.160Z,96905.81
2022-11-29T12:08:06.339Z,96906.78
2022-11-29T12:10:27.628Z,96903.47
2022-11-29T12:12:56.145Z,96907.31
2022-11-29T12:15:25.288Z,96910.88
2022-11-29T12:17:56.710Z,96907.03
2022-11-29T12:20:41.907Z,96914.44
2022-11-29T12:23:14.428Z,96912.81
2022-11-29T12:25:45.871Z,96917.19
2022-11-29T12:28:17.183Z,96919.91
2022-11-29T12:30:49.309Z,96916.66
2022-11-29T12:33:26.925Z,96916.66
2022-11-29T12:35:54.311Z,96918.97
2022-11-29T12:38:20.627Z,96918.44
2022-11-29T12:40:46.935Z,96923.75
2022-11-29T12:43:39.565Z,96919.50
2022-11-29T12:46:11.955Z,96917.47
2022-11-29T12:48:57.093Z,96917.06
2022-11-29T12:51:58.932Z,96919.91
2022-11-29T12:54:28.276Z,96916.91
2022-11-29T12:57:08.010Z,96918.03
2022-11-29T13:00:00.858Z,96918.00
2022-11-29T13:02:34.452Z,96915.81
2022-11-29T13:05:12.542Z,96923.63
2022-11-29T13:07:59.569Z,96926.66
2022-11-29T13:10:28.704Z,96927.88
2022-11-29T13:13:17.507Z,96926.91
2022-11-29T13:15:52.064Z,96932.00
2022-11-29T13:18:25.996Z,96927.31
2022-11-29T13:21:13.222Z,96929.22
2022-11-29T13:24:13.946Z,96925.97
2022-11-29T13:26:31.670Z,96925.13
2022-11-29T13:28:58.411Z,96933.06
2022-11-29T13:31:25.562Z,96935.94
2022-11-29T13:34:10.363Z,96935.44
2022-11-29T13:36:42.684Z,96942.28
2022-11-29T13:39:27.604Z,96936.63
2022-11-29T13:41:59.423Z,96930.88
2022-11-29T13:44:26.858Z,96943.25
2022-11-29T13:47:04.110Z,96940.06
2022-11-29T13:49:49.761Z,96938.97
2022-11-29T13:52:42.435Z,96937.88
2022-11-29T13:55:11.984Z,96936.38
2022-11-29T13:58:15.033Z,96943.22
2022-11-29T14:00:45.549Z,96941.06
2022-11-29T14:03:29.021Z,96945.28
2022-11-29T14:06:01.519Z,96944.47
2022-11-29T14:09:01.946Z,96946.38
2022-11-29T14:11:33.873Z,96950.66
2022-11-29T14:14:04.798Z,96953.66
2022-11-29T14:16:43.476Z,96956.13
2022-11-29T14:19:10.862Z,96960.25
2022-11-29T14:21:56.189Z,96952.16
2022-11-29T14:24:39.055Z,96958.31
2022-11-29T14:27:14.422Z,96961.59
2022-11-29T14:29:53.928Z,96958.84
2022-11-29T14:32:24.715Z,96959.28
2022-11-29T14:34:55.231Z,96959.53
2022-11-29T14:37:28.710Z,96967.91
2022-11-29T14:39:58.489Z,96965.16
2022-11-29T14:42:26.217Z,96957.91
2022-11-29T14:44:54.391Z,96961.06
2022-11-29T14:47:38.787Z,96960.50
2022-11-29T14:50:08.868Z,96959.53
2022-11-29T14:52:51.558Z,96968.59
2022-11-29T14:55:17.922Z,96965.69
2022-11-29T14:57:49.311Z,96971.34
2022-11-29T15:00:15.766Z,96967.91
2022-11-29T15:03:03.534Z,96976.25
2022-11-29T15:05:38.071Z,96970.50
2022-11-29T15:08:07.842Z,96972.31
2022-11-29T15:10:37.329Z,96976.81
2022-11-29T15:13:04.090Z,96976.25
2022-11-29T15:15:50.874Z,96974.22
2022-11-29T15:18:23.493Z,96974.88
2022-11-29T15:21:07.325Z,96977.22
2022-11-29T15:23:41.439Z,96977.06
2022-11-29T15:26:14.494Z,96979.69
2022-11-29T15:28:40.983Z,96986.00
2022-11-29T15:31:09.599Z,96983.13
2022-11-29T15:33:37.352Z,96987.50
2022-11-29T15:36:16.104Z,96998.88
2022-11-29T15:38:48.708Z,96991.06
2022-11-29T15:41:21.400Z,96998.06
2022-11-29T15:43:56.880Z,96992.56
2022-11-29T15:46:27.392Z,96997.50
2022-11-29T15:48:54.150Z,96995.72
2022-11-29T15:51:31.006Z,96991.59
2022-11-29T15:54:13.281Z,97000.38
2022-11-29T15:56:51.923Z,97001.59
2022-11-29T15:59:24.489Z,96999.63
2022-11-29T16:01:52.374Z,97004.63
2022-11-29T16:04:27.340Z,97002.16
2022-11-29T16:06:55.324Z,97009.41
2022-11-29T16:09:25.207Z,97014.50
2022-11-29T16:11:52.877Z,97014.63
2022-11-29T16:14:25.014Z,97019.72
2022-11-29T16:16:53.551Z,97019.31
2022-11-29T16:19:23.041Z,97018.47
2022-11-29T16:22:08.775Z,97023.56
2022-11-29T16:24:36.669Z,97026.28
2022-11-29T16:27:03.482Z,97026.97
2022-11-29T16:29:31.182Z,97024.50
2022-11-29T16:31:57.813Z,97031.63
2022-11-29T16:34:24.197Z,97031.75
2022-11-29T16:37:04.178Z,97026.28
2022-11-29T16:39:31.448Z,97035.19
2022-11-29T16:42:25.831Z,97040.00
2022-11-29T16:45:02.956Z,97039.06
2022-11-29T16:47:31.001Z,97040.28
2022-11-29T16:50:13.802Z,97040.53
2022-11-29T16:52:40.322Z,97040.03
2022-11-29T16:55:12.826Z,97043.56
2022-11-29T16:57:40.602Z,97045.22
2022-11-29T17:00:34.339Z,97040.25
2022-11-29T17:03:01.737Z,97039.88
2022-11-29T17:05:28.252Z,97040.81
2022-11-29T17:07:54.958Z,97039.69
2022-11-29T17:10:25.087Z,97044.22
2022-11-29T17:12:51.474Z,97045.16
2022-11-29T17:15:17.865Z,97052.28
2022-11-29T17:17:44.234Z,97055.75
2022-11-29T17:20:11.363Z,97048.75
2022-11-29T17:22:37.684Z,97050.13
2022-11-29T17:25:04.319Z,97055.19
2022-11-29T17:27:32.015Z,97054.19
2022-11-29T17:29:58.556Z,97062.53
2022-11-29T17:32:26.985Z,97053.09
2022-11-29T17:34:54.633Z,97064.59
2022-11-29T17:37:21.008Z,97059.09
2022-11-29T17:39:49.010Z,97061.06
2022-11-29T17:42:15.537Z,97057.50
2022-11-29T17:44:42.048Z,97060.47
2022-11-29T17:47:11.402Z,97064.34
2022-11-29T17:49:46.109Z,97064.72
2022-11-29T17:52:12.819Z,97070.66
2022-11-29T17:54:39.358Z,97074.72
2022-11-29T17:57:05.948Z,97071.59
2022-11-29T17:59:32.269Z,97080.22
2022-11-29T18:01:58.713Z,97087.09
2022-11-29T18:04:25.218Z,97095.59
2022-11-29T18:06:51.583Z,97091.72
2022-11-29T18:09:18.664Z,97095.00
2022-11-29T18:11:49.661Z,97086.31
2022-11-29T18:14:20.954Z,97094.13
2022-11-29T18:16:47.570Z,97094.69
2022-11-29T18:19:15.883Z,97109.94
2022-11-29T18:21:43.313Z,97114.28
2022-11-29T18:24:09.996Z,97109.84
2022-11-29T18:26:37.018Z,97101.19
2022-11-29T18:29:05.420Z,97106.34
2022-11-29T18:31:32.930Z,97103.38
2022-11-29T18:34:00.365Z,97102.81
2022-11-29T18:36:31.824Z,97101.44
2022-11-29T18:38:59.758Z,97092.22
2022-11-29T18:41:28.144Z,97092.75
2022-11-29T18:44:02.089Z,97097.47
2022-11-29T18:46:32.818Z,97104.94
2022-11-29T18:49:03.235Z,97093.19
2022-11-29T18:51:30.032Z,97096.19
2022-11-29T18:53:56.984Z,97098.50
2022-11-29T18:56:24.262Z,97100.00
2022-11-29T18:58:58.665Z,97109.13
2022-11-29T19:01:27.489Z,97102.66
2022-11-29T19:03:55.265Z,97101.91
2022-11-29T19:06:31.706Z,97102.94
2022-11-29T19:09:06.621Z,97110.91
2022-11-29T19:11:33.411Z,97115.88
2022-11-29T19:14:01.149Z,97109.47
2022-11-29T19:16:28.675Z,97110.41
2022-11-29T19:18:56.511Z,97105.34
2022-11-29T19:21:23.698Z,97109.22
2022-11-29T19:23:54.301Z,97108.91
2022-11-29T19:26:21.478Z,97111.84
2022-11-29T19:28:48.132Z,97117.16
2022-11-29T19:31:15.848Z,97113.34
2022-11-29T19:33:44.682Z,97118.34
2022-11-29T19:36:15.045Z,97114.09
2022-11-29T19:38:47.577Z,97119.09
2022-11-29T19:41:24.469Z,97122.38
2022-11-29T19:43:51.405Z,97122.69
2022-11-29T19:46:17.754Z,97121.59
2022-11-29T19:48:47.310Z,97122.34
2022-11-29T19:51:15.618Z,97130.25
2022-11-29T19:53:43.185Z,97126.66
2022-11-29T19:56:14.048Z,97127.41
2022-11-29T19:58:40.418Z,97130.66
2022-11-29T20:01:08.083Z,97130.78
2022-11-29T20:03:34.895Z,97126.53
2022-11-29T20:06:01.722Z,97125.63
2022-11-29T20:08:28.473Z,97128.91
2022-11-29T20:10:54.960Z,97123.59
2022-11-29T20:13:21.592Z,97127.09
2022-11-29T20:15:47.978Z,97125.34
2022-11-29T20:18:14.480Z,97126.16
2022-11-29T20:20:40.862Z,97123.31
2022-11-29T20:23:09.334Z,97131.09
2022-11-29T20:25:36.405Z,97126.03
2022-11-29T20:28:04.095Z,97123.44
2022-11-29T20:30:30.588Z,97126.47
2022-11-29T20:32:56.985Z,97137.47
2022-11-29T20:35:23.587Z,97139.34
2022-11-29T20:38:08.444Z,97141.16
2022-11-29T20:40:59.522Z,97139.75
2022-11-29T20:43:37.389Z,97140.25
2022-11-29T20:46:03.886Z,97138.75
2022-11-29T20:48:30.405Z,97144.63
2022-11-29T20:50:58.393Z,97146.59
2022-11-29T20:53:31.331Z,97144.38
2022-11-29T20:55:57.964Z,97144.72
2022-11-29T20:58:26.506Z,97141.41
2022-11-29T21:00:53.977Z,97150.16
2022-11-29T21:03:20.748Z,97149.97
2022-11-29T21:05:47.600Z,97154.44
2022-11-29T21:08:15.508Z,97160.84
2022-11-29T21:10:41.841Z,97157.75
2022-11-29T21:13:09.918Z,97159.53
2022-11-29T21:15:37.591Z,97162.69
2022-11-29T21:18:04.227Z,97165.69
2022-11-29T21:20:30.681Z,97173.78
2022-11-29T21:23:15.398Z,97173.31
2022-11-29T21:25:43.677Z,97178.75
2022-11-29T21:28:12.359Z,97179.47
2022-11-29T21:30:39.866Z,97189.50
2022-11-29T21:33:06.430Z,97184.16
2022-11-29T21:35:32.831Z,97190.22
2022-11-29T21:38:00.809Z,97187.38
2022-11-29T21:40:27.696Z,97172.75
2022-11-29T21:42:54.019Z,97174.06
2022-11-29T21:45:20.332Z,97178.06
2022-11-29T21:47:46.705Z,97173.09
2022-11-29T21:50:13.593Z,97179.25
2022-11-29T21:52:40.083Z,97169.81
2022-11-29T21:55:06.835Z,97176.38
2022-11-29T21:57:33.160Z,97176.38
2022-11-29T21:59:59.473Z,97178.75
2022-11-29T22:02:25.848Z,97183.00
2022-11-29T22:04:52.258Z,97187.28
2022-11-29T22:07:18.963Z,97171.81
2022-11-29T22:09:45.317Z,97179.84
2022-11-29T22:12:32.638Z,97179.25
2022-11-29T22:14:58.168Z,97181.84
2022-11-29T22:17:25.594Z,97173.00
2022-11-29T22:19:51.931Z,97178.31
2022-11-29T22:22:18.351Z,97184.94
2022-11-29T22:24:44.851Z,97183.63
2022-11-29T22:27:11.894Z,97177.84
2022-11-29T22:29:38.199Z,97185.78
2022-11-29T22:32:04.676Z,97184.78
2022-11-29T22:34:32.139Z,97184.56
2022-11-29T22:36:58.461Z,97189.25
2022-11-29T22:39:24.888Z,97196.38
2022-11-29T22:41:54.576Z,97192.81
2022-11-29T22:44:21.536Z,97196.03
2022-11-29T22:46:48.064Z,97189.19
2022-11-29T22:49:14.463Z,97188.91
2022-11-29T22:51:40.907Z,97180.44
2022-11-29T22:54:08.729Z,97181.16
2022-11-29T22:56:36.759Z,97181.16
2022-11-29T22:59:03.720Z,97177.25
2022-11-29T23:01:33.379Z,97176.53
2022-11-29T23:04:00.514Z,97182.56
2022-11-29T23:06:26.857Z,97186.59
2022-11-29T23:08:54.410Z,97185.75
2022-11-29T23:11:22.452Z,97193.78
2022-11-29T23:13:48.854Z,97196.53
2022-11-29T23:16:17.175Z,97189.19
2022-11-29T23:18:45.567Z,97198.16
2022-11-29T23:21:16.223Z,97209.63
2022-11-29T23:23:42.929Z,97198.75
2022-11-29T23:26:16.002Z,97197.91
2022-11-29T23:28:42.323Z,97196.50
2022-11-29T23:31:10.907Z,97188.47
2022-11-29T23:33:37.619Z,97192.69
2022-11-29T23:36:05.606Z,97183.50
2022-11-29T23:38:32.011Z,97183.50
2022-11-29T23:40:58.359Z,97186.31
2022-11-29T23:43:24.975Z,97185.25
2022-11-29T23:45:51.321Z,97177.56
2022-11-29T23:48:17.878Z,97180.16
2022-11-29T23:50:44.257Z,97175.91
2022-11-29T23:53:14.862Z,97181.84
2022-11-29T23:55:42.310Z,97170.50
2022-11-29T23:58:09.438Z,97169.88
